sensor_id;sensor_type;location;lat;lon;timestamp;pressure;altitude;pressure_sealevel;temperature;humidity
53916;BME280;39827;49.652;18.770;2022-10-17T00:00:04;97548.66;;;13.16;89.29
53916;BME280;39827;49.652;18.770;2022-10-17T00:02:29;97563.22;;;13.13;89.25
53916;BME280;39827;49.652;18.770;2022-10-17T00:04:55;97561.31;;;13.31;88.02
53916;BME280;39827;49.652;18.770;2022-10-17T00:07:20;97548.50;;;13.28;88.05
53916;BME280;39827;49.652;18.770;2022-10-17T00:09:45;97552.34;;;13.37;87.79
53916;BME280;39827;49.652;18.770;2022-10-17T00:12:11;97548.84;;;13.37;87.50
53916;BME280;39827;49.652;18.770;2022-10-17T00:14:36;97547.94;;;13.26;87.63
53916;BME280;39827;49.652;18.770;2022-10-17T00:17:02;97567.44;;;13.32;87.99
53916;BME280;39827;49.652;18.770;2022-10-17T00:19:27;97554.63;;;13.28;87.43
53916;BME280;39827;49.652;18.770;2022-10-17T00:21:52;97558.09;;;13.29;88.01
53916;BME280;39827;49.652;18.770;2022-10-17T00:24:18;97579.13;;;13.31;88.11
53916;BME280;39827;49.652;18.770;2022-10-17T00:26:43;97566.38;;;13.33;87.07
53916;BME280;39827;49.652;18.770;2022-10-17T00:29:08;97571.78;;;13.38;87.01
53916;BME280;39827;49.652;18.770;2022-10-17T00:31:34;97560.25;;;13.32;86.71
53916;BME280;39827;49.652;18.770;2022-10-17T00:34:00;97571.50;;;13.39;86.38
53916;BME280;39827;49.652;18.770;2022-10-17T00:36:26;97560.56;;;13.36;86.66
53916;BME280;39827;49.652;18.770;2022-10-17T00:38:53;97546.91;;;13.27;86.75
53916;BME280;39827;49.652;18.770;2022-10-17T00:41:23;97561.56;;;13.29;86.72
53916;BME280;39827;49.652;18.770;2022-10-17T00:46:29;97557.78;;;13.25;86.67
53916;BME280;39827;49.652;18.770;2022-10-17T00:48:56;97563.28;;;13.41;85.76
53916;BME280;39827;49.652;18.770;2022-10-17T00:51:50;97561.56;;;13.29;86.56
53916;BME280;39827;49.652;18.770;2022-10-17T00:54:21;97565.53;;;13.27;86.20
53916;BME280;39827;49.652;18.770;2022-10-17T00:56:47;97562.59;;;13.28;85.70
53916;BME280;39827;49.652;18.770;2022-10-17T00:59:15;97553.59;;;13.29;85.53
53916;BME280;39827;49.652;18.770;2022-10-17T01:01:43;97560.75;;;13.29;85.43
53916;BME280;39827;49.652;18.770;2022-10-17T01:04:13;97564.41;;;13.23;85.80
53916;BME280;39827;49.652;18.770;2022-10-17T01:06:38;97557.97;;;13.19;86.15
53916;BME280;39827;49.652;18.770;2022-10-17T01:09:04;97565.16;;;13.18;85.78
53916;BME280;39827;49.652;18.770;2022-10-17T01:14:25;97569.16;;;13.21;85.95
53916;BME280;39827;49.652;18.770;2022-10-17T01:17:09;97579.41;;;13.34;84.76
53916;BME280;39827;49.652;18.770;2022-10-17T01:22:43;97565.00;;;13.30;84.52
53916;BME280;39827;49.652;18.770;2022-10-17T01:28:15;97565.78;;;13.48;83.74
53916;BME280;39827;49.652;18.770;2022-10-17T01:33:34;97573.50;;;13.49;84.08
53916;BME280;39827;49.652;18.770;2022-10-17T01:36:10;97572.00;;;13.36;84.49
53916;BME280;39827;49.652;18.770;2022-10-17T01:39:01;97577.00;;;13.33;84.77
53916;BME280;39827;49.652;18.770;2022-10-17T01:41:45;97577.53;;;13.29;85.14
53916;BME280;39827;49.652;18.770;2022-10-17T01:47:00;97572.94;;;13.25;84.93
53916;BME280;39827;49.652;18.770;2022-10-17T01:49:28;97560.44;;;13.25;84.83
53916;BME280;39827;49.652;18.770;2022-10-17T01:52:04;97580.97;;;13.30;84.69
53916;BME280;39827;49.652;18.770;2022-10-17T01:54:53;97572.25;;;13.35;84.39
53916;BME280;39827;49.652;18.770;2022-10-17T01:57:30;97569.03;;;13.33;84.60
53916;BME280;39827;49.652;18.770;2022-10-17T01:59:58;97572.81;;;13.37;84.12
53916;BME280;39827;49.652;18.770;2022-10-17T02:02:25;97570.72;;;13.39;84.32
53916;BME280;39827;49.652;18.770;2022-10-17T02:04:51;97561.56;;;13.29;84.50
53916;BME280;39827;49.652;18.770;2022-10-17T02:07:17;97561.03;;;13.33;84.28
53916;BME280;39827;49.652;18.770;2022-10-17T02:09:42;97556.00;;;13.31;84.57
53916;BME280;39827;49.652;18.770;2022-10-17T02:31:21;97564.75;;;13.32;84.45
53916;BME280;39827;49.652;18.770;2022-10-17T02:33:56;97556.09;;;13.19;84.63
53916;BME280;39827;49.652;18.770;2022-10-17T02:36:26;97567.44;;;13.32;83.81
53916;BME280;39827;49.652;18.770;2022-10-17T02:38:54;97560.81;;;13.34;83.58
53916;BME280;39827;49.652;18.770;2022-10-17T02:41:20;97559.25;;;13.38;83.39
53916;BME280;39827;49.652;18.770;2022-10-17T02:43:48;97568.19;;;13.49;83.12
53916;BME280;39827;49.652;18.770;2022-10-17T02:46:18;97575.84;;;13.46;82.91
53916;BME280;39827;49.652;18.770;2022-10-17T02:48:51;97573.84;;;13.13;85.01
53916;BME280;39827;49.652;18.770;2022-10-17T02:51:26;97570.69;;;13.16;84.50
53916;BME280;39827;49.652;18.770;2022-10-17T02:56:47;97580.28;;;12.95;86.56
53916;BME280;39827;49.652;18.770;2022-10-17T02:59:16;97574.03;;;13.07;85.38
53916;BME280;39827;49.652;18.770;2022-10-17T03:01:45;97573.59;;;13.15;84.36
53916;BME280;39827;49.652;18.770;2022-10-17T03:04:12;97581.09;;;13.18;84.50
53916;BME280;39827;49.652;18.770;2022-10-17T03:06:39;97594.09;;;13.14;85.31
53916;BME280;39827;49.652;18.770;2022-10-17T03:09:06;97584.59;;;13.01;85.59
53916;BME280;39827;49.652;18.770;2022-10-17T03:11:31;97583.50;;;12.97;85.95
53916;BME280;39827;49.652;18.770;2022-10-17T03:13:57;97603.38;;;13.12;85.03
53916;BME280;39827;49.652;18.770;2022-10-17T03:16:22;97594.84;;;13.32;83.53
53916;BME280;39827;49.652;18.770;2022-10-17T03:18:47;97610.56;;;13.34;83.63
53916;BME280;39827;49.652;18.770;2022-10-17T03:21:13;97599.03;;;13.28;84.00
53916;BME280;39827;49.652;18.770;2022-10-17T03:23:38;97608.44;;;13.36;83.18
53916;BME280;39827;49.652;18.770;2022-10-17T03:26:05;97599.91;;;13.34;82.91
53916;BME280;39827;49.652;18.770;2022-10-17T03:28:30;97603.06;;;13.31;83.01
53916;BME280;39827;49.652;18.770;2022-10-17T03:30:56;97604.66;;;13.32;82.92
53916;BME280;39827;49.652;18.770;2022-10-17T03:33:21;97605.97;;;13.29;83.07
53916;BME280;39827;49.652;18.770;2022-10-17T03:35:46;97612.09;;;13.29;83.46
53916;BME280;39827;49.652;18.770;2022-10-17T03:38:12;97614.06;;;13.17;84.03
53916;BME280;39827;49.652;18.770;2022-10-17T03:40:37;97607.16;;;13.16;83.97
53916;BME280;39827;49.652;18.770;2022-10-17T03:43:03;97617.31;;;13.24;83.21
53916;BME280;39827;49.652;18.770;2022-10-17T03:45:28;97619.50;;;13.27;83.67
53916;BME280;39827;49.652;18.770;2022-10-17T03:47:53;97619.22;;;13.07;84.90
53916;BME280;39827;49.652;18.770;2022-10-17T03:50:19;97629.66;;;13.31;83.32
53916;BME280;39827;49.652;18.770;2022-10-17T03:52:48;97615.91;;;13.16;83.49
53916;BME280;39827;49.652;18.770;2022-10-17T03:55:14;97623.53;;;13.08;84.23
53916;BME280;39827;49.652;18.770;2022-10-17T03:57:39;97622.34;;;13.21;83.67
53916;BME280;39827;49.652;18.770;2022-10-17T04:00:05;97630.50;;;13.14;84.47
53916;BME280;39827;49.652;18.770;2022-10-17T04:02:31;97623.72;;;13.23;83.58
53916;BME280;39827;49.652;18.770;2022-10-17T04:04:56;97631.88;;;13.16;84.31
53916;BME280;39827;49.652;18.770;2022-10-17T04:07:21;97637.00;;;13.01;85.16
53916;BME280;39827;49.652;18.770;2022-10-17T04:09:47;97632.31;;;12.91;86.03
53916;BME280;39827;49.652;18.770;2022-10-17T04:12:13;97621.34;;;13.05;84.30
53916;BME280;39827;49.652;18.770;2022-10-17T04:14:39;97627.31;;;13.12;83.71
53916;BME280;39827;49.652;18.770;2022-10-17T04:17:04;97626.00;;;13.37;81.95
53916;BME280;39827;49.652;18.770;2022-10-17T04:19:29;97628.66;;;13.37;82.55
53916;BME280;39827;49.652;18.770;2022-10-17T04:21:55;97626.91;;;13.03;84.84
53916;BME280;39827;49.652;18.770;2022-10-17T04:24:20;97629.66;;;12.91;84.93
53916;BME280;39827;49.652;18.770;2022-10-17T04:26:48;97626.66;;;13.05;84.20
53916;BME280;39827;49.652;18.770;2022-10-17T04:29:15;97642.81;;;13.20;83.85
53916;BME280;39827;49.652;18.770;2022-10-17T04:31:40;97637.28;;;13.05;84.21
53916;BME280;39827;49.652;18.770;2022-10-17T04:34:05;97628.91;;;13.13;83.58
53916;BME280;39827;49.652;18.770;2022-10-17T04:36:31;97630.97;;;13.11;84.04
53916;BME280;39827;49.652;18.770;2022-10-17T04:38:56;97647.88;;;12.99;84.72
53916;BME280;39827;49.652;18.770;2022-10-17T04:41:21;97640.22;;;12.86;85.67
53916;BME280;39827;49.652;18.770;2022-10-17T04:43:47;97632.69;;;13.00;84.44
53916;BME280;39827;49.652;18.770;2022-10-17T04:46:13;97650.28;;;12.84;85.56
53916;BME280;39827;49.652;18.770;2022-10-17T04:48:40;97643.84;;;12.80;85.70
53916;BME280;39827;49.652;18.770;2022-10-17T04:51:07;97634.53;;;12.60;87.65
53916;BME280;39827;49.652;18.770;2022-10-17T04:53:35;97651.34;;;12.66;86.88
53916;BME280;39827;49.652;18.770;2022-10-17T04:56:01;97641.91;;;12.58;87.54
53916;BME280;39827;49.652;18.770;2022-10-17T04:58:31;97651.41;;;12.36;89.31
53916;BME280;39827;49.652;18.770;2022-10-17T05:00:56;97644.91;;;12.27;89.57
53916;BME280;39827;49.652;18.770;2022-10-17T05:03:21;97641.13;;;12.11;91.88
53916;BME280;39827;49.652;18.770;2022-10-17T05:05:47;97641.97;;;12.11;91.19
53916;BME280;39827;49.652;18.770;2022-10-17T05:08:12;97652.03;;;12.44;88.48
53916;BME280;39827;49.652;18.770;2022-10-17T05:10:39;97651.19;;;12.38;89.56
53916;BME280;39827;49.652;18.770;2022-10-17T05:13:05;97650.75;;;12.29;89.84
53916;BME280;39827;49.652;18.770;2022-10-17T05:15:30;97653.72;;;12.33;89.54
53916;BME280;39827;49.652;18.770;2022-10-17T05:17:56;97654.16;;;12.24;90.36
53916;BME280;39827;49.652;18.770;2022-10-17T05:20:22;97660.28;;;12.42;88.99
53916;BME280;39827;49.652;18.770;2022-10-17T05:22:48;97662.00;;;12.19;91.84
53916;BME280;39827;49.652;18.770;2022-10-17T05:25:13;97652.81;;;12.10;91.40
53916;BME280;39827;49.652;18.770;2022-10-17T05:27:39;97672.22;;;12.28;90.25
53916;BME280;39827;49.652;18.770;2022-10-17T05:30:04;97671.69;;;12.25;90.75
53916;BME280;39827;49.652;18.770;2022-10-17T05:32:30;97667.03;;;12.50;88.78
53916;BME280;39827;49.652;18.770;2022-10-17T05:34:55;97672.75;;;12.42;90.39
53916;BME280;39827;49.652;18.770;2022-10-17T05:37:21;97666.72;;;12.46;89.28
53916;BME280;39827;49.652;18.770;2022-10-17T05:39:46;97668.56;;;12.63;88.55
53916;BME280;39827;49.652;18.770;2022-10-17T05:42:12;97663.16;;;12.58;88.91
53916;BME280;39827;49.652;18.770;2022-10-17T05:44:37;97661.16;;;12.48;88.95
53916;BME280;39827;49.652;18.770;2022-10-17T05:47:05;97674.69;;;12.63;88.38
53916;BME280;39827;49.652;18.770;2022-10-17T05:49:31;97672.19;;;12.74;87.44
53916;BME280;39827;49.652;18.770;2022-10-17T05:51:56;97660.91;;;13.01;86.08
53916;BME280;39827;49.652;18.770;2022-10-17T05:54:21;97672.75;;;13.10;86.06
53916;BME280;39827;49.652;18.770;2022-10-17T05:56:51;97674.00;;;13.25;84.14
53916;BME280;39827;49.652;18.770;2022-10-17T05:59:16;97682.09;;;13.35;83.31
53916;BME280;39827;49.652;18.770;2022-10-17T06:01:42;97677.53;;;13.31;83.82
53916;BME280;39827;49.652;18.770;2022-10-17T06:04:07;97683.03;;;13.46;82.80
53916;BME280;39827;49.652;18.770;2022-10-17T06:06:35;97680.31;;;13.58;82.64
53916;BME280;39827;49.652;18.770;2022-10-17T06:09:00;97690.72;;;13.60;82.65
53916;BME280;39827;49.652;18.770;2022-10-17T06:11:26;97674.00;;;13.64;81.26
53916;BME280;39827;49.652;18.770;2022-10-17T06:13:51;97685.44;;;13.65;81.15
53916;BME280;39827;49.652;18.770;2022-10-17T06:16:16;97692.25;;;13.78;81.19
53916;BME280;39827;49.652;18.770;2022-10-17T06:18:42;97681.78;;;13.71;80.76
53916;BME280;39827;49.652;18.770;2022-10-17T06:21:09;97688.16;;;13.70;80.43
53916;BME280;39827;49.652;18.770;2022-10-17T06:23:34;97710.69;;;13.85;80.38
53916;BME280;39827;49.652;18.770;2022-10-17T06:26:01;97717.75;;;13.96;79.15
53916;BME280;39827;49.652;18.770;2022-10-17T06:28:27;97710.31;;;13.98;79.17
53916;BME280;39827;49.652;18.770;2022-10-17T06:30:52;97717.19;;;13.94;79.24
53916;BME280;39827;49.652;18.770;2022-10-17T06:33:18;97714.34;;;14.01;78.45
53916;BME280;39827;49.652;18.770;2022-10-17T06:35:50;97723.50;;;14.10;78.44
53916;BME280;39827;49.652;18.770;2022-10-17T06:38:16;97729.38;;;14.12;78.12
53916;BME280;39827;49.652;18.770;2022-10-17T06:40:41;97733.28;;;14.04;78.15
53916;BME280;39827;49.652;18.770;2022-10-17T06:43:07;97729.13;;;14.14;77.98
53916;BME280;39827;49.652;18.770;2022-10-17T06:45:32;97723.84;;;14.74;75.22
53916;BME280;39827;49.652;18.770;2022-10-17T06:47:57;97724.75;;;15.18;72.46
53916;BME280;39827;49.652;18.770;2022-10-17T06:50:23;97734.66;;;16.71;67.23
53916;BME280;39827;49.652;18.770;2022-10-17T06:52:51;97750.34;;;17.77;61.81
53916;BME280;39827;49.652;18.770;2022-10-17T06:55:16;97755.56;;;17.11;63.25
53916;BME280;39827;49.652;18.770;2022-10-17T06:57:41;97742.69;;;16.97;63.58
53916;BME280;39827;49.652;18.770;2022-10-17T07:00:07;97746.31;;;17.84;60.58
53916;BME280;39827;49.652;18.770;2022-10-17T07:02:33;97745.94;;;19.32;56.61
53916;BME280;39827;49.652;18.770;2022-10-17T07:04:58;97743.88;;;19.48;55.19
53916;BME280;39827;49.652;18.770;2022-10-17T07:07:23;97742.09;;;19.09;55.81
53916;BME280;39827;49.652;18.770;2022-10-17T07:09:50;97757.97;;;19.35;54.76
53916;BME280;39827;49.652;18.770;2022-10-17T07:12:15;97746.25;;;19.25;54.63
53916;BME280;39827;49.652;18.770;2022-10-17T07:14:41;97761.06;;;18.88;56.02
53916;BME280;39827;49.652;18.770;2022-10-17T07:17:06;97757.69;;;19.36;54.39
53916;BME280;39827;49.652;18.770;2022-10-17T07:19:31;97760.38;;;19.90;53.03
53916;BME280;39827;49.652;18.770;2022-10-17T07:21:57;97761.47;;;20.33;51.12
53916;BME280;39827;49.652;18.770;2022-10-17T07:24:22;97754.53;;;20.85;50.31
53916;BME280;39827;49.652;18.770;2022-10-17T07:26:48;97768.44;;;20.92;49.09
53916;BME280;39827;49.652;18.770;2022-10-17T07:29:13;97762.47;;;20.95;49.27
53916;BME280;39827;49.652;18.770;2022-10-17T07:31:38;97768.31;;;20.64;49.91
53916;BME280;39827;49.652;18.770;2022-10-17T07:34:04;97757.53;;;21.02;49.84
53916;BME280;39827;49.652;18.770;2022-10-17T07:36:29;97764.41;;;21.08;48.54
53916;BME280;39827;49.652;18.770;2022-10-17T07:38:54;97776.22;;;20.93;48.87
53916;BME280;39827;49.652;18.770;2022-10-17T07:41:20;97772.63;;;21.31;48.58
53916;BME280;39827;49.652;18.770;2022-10-17T07:43:45;97765.09;;;21.47;47.78
53916;BME280;39827;49.652;18.770;2022-10-17T07:46:10;97781.22;;;21.00;48.55
53916;BME280;39827;49.652;18.770;2022-10-17T07:48:37;97767.34;;;21.26;48.32
53916;BME280;39827;49.652;18.770;2022-10-17T07:51:05;97770.47;;;21.61;47.42
53916;BME280;39827;49.652;18.770;2022-10-17T07:53:30;97755.66;;;21.17;48.20
53916;BME280;39827;49.652;18.770;2022-10-17T07:55:56;97776.47;;;22.15;46.50
53916;BME280;39827;49.652;18.770;2022-10-17T07:58:22;97754.13;;;22.00;46.88
53916;BME280;39827;49.652;18.770;2022-10-17T08:00:47;97777.06;;;21.55;47.32
53916;BME280;39827;49.652;18.770;2022-10-17T08:03:15;97777.09;;;21.83;47.41
53916;BME280;39827;49.652;18.770;2022-10-17T08:05:40;97766.63;;;21.82;46.49
53916;BME280;39827;49.652;18.770;2022-10-17T08:08:06;97775.47;;;21.68;46.66
53916;BME280;39827;49.652;18.770;2022-10-17T08:10:31;97778.28;;;22.33;45.74
53916;BME280;39827;49.652;18.770;2022-10-17T08:12:57;97774.78;;;23.38;43.43
53916;BME280;39827;49.652;18.770;2022-10-17T08:15:23;97776.03;;;22.86;44.93
53916;BME280;39827;49.652;18.770;2022-10-17T08:17:49;97786.16;;;22.30;44.79
53916;BME280;39827;49.652;18.770;2022-10-17T08:20:14;97767.72;;;22.60;45.18
53916;BME280;39827;49.652;18.770;2022-10-17T08:22:40;97775.66;;;22.42;45.25
53916;BME280;39827;49.652;18.770;2022-10-17T08:25:06;97762.34;;;21.95;46.35
53916;BME280;39827;49.652;18.770;2022-10-17T08:27:32;97784.44;;;22.85;44.17
53916;BME280;39827;49.652;18.770;2022-10-17T08:29:58;97787.50;;;22.18;44.97
53916;BME280;39827;49.652;18.770;2022-10-17T08:32:26;97794.06;;;22.12;44.98
53916;BME280;39827;49.652;18.770;2022-10-17T08:34:52;97776.72;;;21.29;47.43
53916;BME280;39827;49.652;18.770;2022-10-17T08:37:18;97788.91;;;22.02;46.27
53916;BME280;39827;49.652;18.770;2022-10-17T08:39:43;97777.34;;;21.40;47.70
53916;BME280;39827;49.652;18.770;2022-10-17T08:47:33;97774.44;;;20.89;48.92
53916;BME280;39827;49.652;18.770;2022-10-17T08:50:03;97777.03;;;20.75;49.21
53916;BME280;39827;49.652;18.770;2022-10-17T08:52:39;97787.53;;;21.43;47.94
53916;BME280;39827;49.652;18.770;2022-10-17T08:55:14;97770.47;;;22.83;44.43
53916;BME280;39827;49.652;18.770;2022-10-17T08:57:40;97785.81;;;22.96;44.48
53916;BME280;39827;49.652;18.770;2022-10-17T09:00:14;97786.81;;;22.49;44.98
53916;BME280;39827;49.652;18.770;2022-10-17T09:05:51;97766.63;;;23.07;43.60
53916;BME280;39827;49.652;18.770;2022-10-17T09:08:32;97794.59;;;22.65;43.64
53916;BME280;39827;49.652;18.770;2022-10-17T09:19:57;97783.72;;;24.38;40.06
53916;BME280;39827;49.652;18.770;2022-10-17T09:22:26;97777.72;;;23.91;40.96
53916;BME280;39827;49.652;18.770;2022-10-17T09:24:55;97779.28;;;25.69;38.79
53916;BME280;39827;49.652;18.770;2022-10-17T09:32:58;97775.44;;;24.78;37.85
53916;BME280;39827;49.652;18.770;2022-10-17T09:35:24;97780.69;;;25.19;38.49
53916;BME280;39827;49.652;18.770;2022-10-17T09:37:52;97783.72;;;24.73;38.30
53916;BME280;39827;49.652;18.770;2022-10-17T09:40:23;97786.50;;;24.06;39.67
53916;BME280;39827;49.652;18.770;2022-10-17T09:42:50;97789.13;;;24.29;39.21
53916;BME280;39827;49.652;18.770;2022-10-17T09:45:19;97770.19;;;24.46;39.48
53916;BME280;39827;49.652;18.770;2022-10-17T09:47:56;97769.81;;;24.13;38.91
53916;BME280;39827;49.652;18.770;2022-10-17T09:52:52;97794.56;;;24.73;38.30
53916;BME280;39827;49.652;18.770;2022-10-17T09:55:38;97786.88;;;25.19;38.30
53916;BME280;39827;49.652;18.770;2022-10-17T09:58:06;97792.81;;;25.13;37.57
53916;BME280;39827;49.652;18.770;2022-10-17T10:00:37;97792.50;;;24.88;38.79
53916;BME280;39827;49.652;18.770;2022-10-17T10:03:20;97796.28;;;25.22;37.76
53916;BME280;39827;49.652;18.770;2022-10-17T10:06:19;97801.91;;;24.99;38.69
53916;BME280;39827;49.652;18.770;2022-10-17T10:08:51;97799.06;;;24.95;38.08
53916;BME280;39827;49.652;18.770;2022-10-17T10:11:18;97799.28;;;25.86;36.69
53916;BME280;39827;49.652;18.770;2022-10-17T10:13:47;97803.94;;;25.85;37.15
53916;BME280;39827;49.652;18.770;2022-10-17T10:16:22;97808.75;;;24.88;38.24
53916;BME280;39827;49.652;18.770;2022-10-17T10:18:54;97795.06;;;24.84;38.75
53916;BME280;39827;49.652;18.770;2022-10-17T10:21:21;97800.22;;;25.60;37.48
53916;BME280;39827;49.652;18.770;2022-10-17T10:24:14;97796.00;;;25.71;36.79
53916;BME280;39827;49.652;18.770;2022-10-17T10:26:45;97811.00;;;26.08;38.14
53916;BME280;39827;49.652;18.770;2022-10-17T10:29:22;97805.78;;;25.63;36.86
53916;BME280;39827;49.652;18.770;2022-10-17T10:31:48;97806.06;;;26.40;35.45
53916;BME280;39827;49.652;18.770;2022-10-17T10:34:21;97799.38;;;25.68;36.80
53916;BME280;39827;49.652;18.770;2022-10-17T10:37:03;97815.34;;;26.39;35.89
53916;BME280;39827;49.652;18.770;2022-10-17T10:42:01;97806.06;;;26.40;35.52
53916;BME280;39827;49.652;18.770;2022-10-17T10:44:29;97800.78;;;25.74;37.09
53916;BME280;39827;49.652;18.770;2022-10-17T10:47:14;97799.03;;;24.78;38.17
53916;BME280;39827;49.652;18.770;2022-10-17T10:49:42;97786.41;;;25.26;37.47
53916;BME280;39827;49.652;18.770;2022-10-17T10:52:12;97802.47;;;25.49;37.43
53916;BME280;39827;49.652;18.770;2022-10-17T10:54:45;97796.88;;;25.93;36.27
53916;BME280;39827;49.652;18.770;2022-10-17T10:57:17;97781.59;;;25.88;36.99
53916;BME280;39827;49.652;18.770;2022-10-17T10:59:53;97796.19;;;25.01;37.48
53916;BME280;39827;49.652;18.770;2022-10-17T11:02:39;97789.19;;;25.65;36.38
53916;BME280;39827;49.652;18.770;2022-10-17T11:05:35;97793.75;;;25.26;37.27
53916;BME280;39827;49.652;18.770;2022-10-17T11:08:23;97795.16;;;24.26;38.95
53916;BME280;39827;49.652;18.770;2022-10-17T11:13:36;97787.09;;;25.05;37.29
53916;BME280;39827;49.652;18.770;2022-10-17T11:16:17;97778.16;;;24.96;38.15
53916;BME280;39827;49.652;18.770;2022-10-17T11:18:46;97788.34;;;24.81;38.84
53916;BME280;39827;49.652;18.770;2022-10-17T11:24:14;97779.75;;;24.79;38.36
53916;BME280;39827;49.652;18.770;2022-10-17T11:26:49;97782.94;;;24.72;38.13
53916;BME280;39827;49.652;18.770;2022-10-17T11:29:17;97793.16;;;24.67;38.08
53916;BME280;39827;49.652;18.770;2022-10-17T11:31:47;97786.97;;;25.58;37.08
53916;BME280;39827;49.652;18.770;2022-10-17T11:34:26;97788.16;;;25.79;35.91
53916;BME280;39827;49.652;18.770;2022-10-17T11:36:58;97777.19;;;25.18;37.07
53916;BME280;39827;49.652;18.770;2022-10-17T11:39:55;97774.66;;;25.13;38.66
53916;BME280;39827;49.652;18.770;2022-10-17T11:42:28;97773.41;;;24.93;37.20
53916;BME280;39827;49.652;18.770;2022-10-17T11:44:59;97765.25;;;24.49;38.33
53916;BME280;39827;49.652;18.770;2022-10-17T11:48:09;97776.25;;;24.79;38.78
53916;BME280;39827;49.652;18.770;2022-10-17T11:50:39;97763.16;;;24.28;38.67
53916;BME280;39827;49.652;18.770;2022-10-17T11:53:18;97783.94;;;23.92;39.32
53916;BME280;39827;49.652;18.770;2022-10-17T11:55:45;97762.88;;;24.38;39.38
53916;BME280;39827;49.652;18.770;2022-10-17T11:58:28;97767.16;;;24.48;38.89
53916;BME280;39827;49.652;18.770;2022-10-17T12:04:00;97780.56;;;23.95;38.90
53916;BME280;39827;49.652;18.770;2022-10-17T12:09:46;97770.75;;;24.08;40.01
53916;BME280;39827;49.652;18.770;2022-10-17T12:12:26;97772.13;;;23.47;40.46
53916;BME280;39827;49.652;18.770;2022-10-17T12:14:52;97786.19;;;24.07;40.50
53916;BME280;39827;49.652;18.770;2022-10-17T12:17:34;97768.94;;;23.86;39.30
53916;BME280;39827;49.652;18.770;2022-10-17T12:25:59;97768.88;;;24.17;39.74
53916;BME280;39827;49.652;18.770;2022-10-17T12:28:42;97762.81;;;23.62;41.20
53916;BME280;39827;49.652;18.770;2022-10-17T12:31:21;97767.09;;;23.63;40.35
53916;BME280;39827;49.652;18.770;2022-10-17T12:33:54;97765.03;;;23.60;40.42
53916;BME280;39827;49.652;18.770;2022-10-17T12:46:41;97773.28;;;23.55;40.86
53916;BME280;39827;49.652;18.770;2022-10-17T12:49:45;97763.50;;;23.13;41.27
53916;BME280;39827;49.652;18.770;2022-10-17T13:03:23;97753.50;;;23.14;43.61
53916;BME280;39827;49.652;18.770;2022-10-17T13:05:55;97763.56;;;22.99;43.65
53916;BME280;39827;49.652;18.770;2022-10-17T13:08:34;97758.16;;;23.22;43.75
53916;BME280;39827;49.652;18.770;2022-10-17T13:11:03;97767.13;;;22.63;43.71
53916;BME280;39827;49.652;18.770;2022-10-17T13:13:50;97761.41;;;22.87;44.94
53916;BME280;39827;49.652;18.770;2022-10-17T13:18:58;97755.16;;;22.78;43.87
53916;BME280;39827;49.652;18.770;2022-10-17T13:21:24;97761.09;;;23.12;45.03
53916;BME280;39827;49.652;18.770;2022-10-17T13:23:49;97773.72;;;23.25;44.39
53916;BME280;39827;49.652;18.770;2022-10-17T13:26:23;97774.84;;;23.24;44.18
53916;BME280;39827;49.652;18.770;2022-10-17T13:29:09;97763.66;;;22.85;44.81
53916;BME280;39827;49.652;18.770;2022-10-17T13:31:37;97767.81;;;22.91;47.41
53916;BME280;39827;49.652;18.770;2022-10-17T13:34:06;97762.28;;;22.74;46.67
53916;BME280;39827;49.652;18.770;2022-10-17T13:36:40;97763.69;;;22.71;48.89
53916;BME280;39827;49.652;18.770;2022-10-17T13:39:08;97763.69;;;22.34;46.35
53916;BME280;39827;49.652;18.770;2022-10-17T13:41:34;97755.94;;;21.77;45.73
53916;BME280;39827;49.652;18.770;2022-10-17T13:44:02;97757.13;;;21.98;46.59
53916;BME280;39827;49.652;18.770;2022-10-17T13:46:32;97763.16;;;21.95;47.20
53916;BME280;39827;49.652;18.770;2022-10-17T13:49:11;97762.69;;;21.46;47.40
53916;BME280;39827;49.652;18.770;2022-10-17T13:51:43;97762.09;;;20.82;49.17
53916;BME280;39827;49.652;18.770;2022-10-17T13:54:32;97760.16;;;20.50;50.00
53916;BME280;39827;49.652;18.770;2022-10-17T13:56:59;97758.94;;;20.42;51.87
53916;BME280;39827;49.652;18.770;2022-10-17T13:59:38;97761.75;;;20.12;54.30
53916;BME280;39827;49.652;18.770;2022-10-17T14:02:04;97764.25;;;19.79;54.86
53916;BME280;39827;49.652;18.770;2022-10-17T14:04:36;97756.25;;;19.74;53.48
53916;BME280;39827;49.652;18.770;2022-10-17T14:07:02;97748.97;;;19.50;57.10
53916;BME280;39827;49.652;18.770;2022-10-17T14:09:29;97763.63;;;19.33;57.36
53916;BME280;39827;49.652;18.770;2022-10-17T14:11:59;97766.88;;;18.95;60.69
53916;BME280;39827;49.652;18.770;2022-10-17T14:14:25;97756.25;;;18.85;61.76
53916;BME280;39827;49.652;18.770;2022-10-17T14:16:51;97756.56;;;18.78;62.24
53916;BME280;39827;49.652;18.770;2022-10-17T14:19:32;97760.66;;;18.25;64.68
53916;BME280;39827;49.652;18.770;2022-10-17T14:22:26;97758.81;;;18.15;65.60
53916;BME280;39827;49.652;18.770;2022-10-17T14:24:52;97754.00;;;18.12;67.45
53916;BME280;39827;49.652;18.770;2022-10-17T14:27:27;97747.63;;;17.87;66.76
53916;BME280;39827;49.652;18.770;2022-10-17T14:29:55;97757.28;;;17.88;68.31
53916;BME280;39827;49.652;18.770;2022-10-17T14:32:26;97750.38;;;17.71;68.43
53916;BME280;39827;49.652;18.770;2022-10-17T14:34:54;97748.84;;;17.44;70.26
53916;BME280;39827;49.652;18.770;2022-10-17T14:39:49;97744.84;;;17.26;69.94
53916;BME280;39827;49.652;18.770;2022-10-17T14:42:21;97753.94;;;17.30;66.71
53916;BME280;39827;49.652;18.770;2022-10-17T14:44:48;97748.59;;;17.25;72.80
53916;BME280;39827;49.652;18.770;2022-10-17T14:47:18;97752.63;;;16.97;71.42
53916;BME280;39827;49.652;18.770;2022-10-17T14:49:48;97755.78;;;16.73;74.39
53916;BME280;39827;49.652;18.770;2022-10-17T14:54:40;97747.22;;;16.50;75.81